createdAt,value
2023-01-10T00:00:45.729Z,6.43
2023-01-10T00:03:19.555Z,5.90
2023-01-10T00:08:25.934Z,8.07
2023-01-10T00:11:19.195Z,10.55
2023-01-10T00:13:55.187Z,10.95
2023-01-10T00:16:28.673Z,5.45
2023-01-10T00:19:02.001Z,8.45
2023-01-10T00:21:35.351Z,8.10
2023-01-10T00:24:17.379Z,8.82
2023-01-10T00:26:52.794Z,4.55
2023-01-10T00:29:31.289Z,5.85
2023-01-10T00:32:04.673Z,7.07
2023-01-10T00:34:37.975Z,7.00
2023-01-10T00:37:11.251Z,6.00
2023-01-10T00:39:44.563Z,6.63
2023-01-10T00:42:35.451Z,8.85
2023-01-10T00:45:11.882Z,6.07
2023-01-10T00:47:45.184Z,11.82
2023-01-10T00:50:18.801Z,7.53
2023-01-10T00:52:52.044Z,6.20
2023-01-10T00:55:25.385Z,6.43
2023-01-10T00:57:58.791Z,8.70
2023-01-10T01:00:33.503Z,6.28
2023-01-10T01:03:08.056Z,7.55
2023-01-10T01:05:42.584Z,7.47
2023-01-10T01:08:17.849Z,7.68
2023-01-10T01:10:51.843Z,6.97
2023-01-10T01:13:25.655Z,7.88
2023-01-10T01:18:34.155Z,10.05
2023-01-10T01:21:08.454Z,8.13
2023-01-10T01:23:42.309Z,5.97
2023-01-10T01:28:48.723Z,4.63
2023-01-10T01:31:23.486Z,7.65
2023-01-10T01:33:57.129Z,2.63
2023-01-10T01:36:30.441Z,8.40
2023-01-10T01:39:03.997Z,6.32
2023-01-10T01:41:54.892Z,7.68
2023-01-10T01:44:32.781Z,8.98
2023-01-10T01:47:09.713Z,7.13
2023-01-10T01:49:45.435Z,8.98
2023-01-10T01:52:24.240Z,9.60
2023-01-10T01:55:00.297Z,12.60
2023-01-10T01:57:34.736Z,8.63
2023-01-10T02:00:10.689Z,8.55
2023-01-10T02:03:02.274Z,10.30
2023-01-10T02:05:40.215Z,6.70
2023-01-10T02:08:14.895Z,4.32
2023-01-10T02:10:53.634Z,6.72
2023-01-10T02:13:28.543Z,10.65
2023-01-10T02:16:01.964Z,6.00
2023-01-10T02:18:36.981Z,8.40
2023-01-10T02:21:32.406Z,4.55
2023-01-10T02:24:28.665Z,5.90
2023-01-10T02:27:27.620Z,4.75
2023-01-10T02:30:28.500Z,7.10
2023-01-10T02:33:10.975Z,7.53
2023-01-10T02:35:56.845Z,4.55
2023-01-10T02:38:43.014Z,8.00
2023-01-10T02:41:26.027Z,3.70
2023-01-10T02:44:04.197Z,4.22
2023-01-10T02:46:40.761Z,7.88
2023-01-10T02:49:15.496Z,7.68
2023-01-10T02:51:48.786Z,4.28
2023-01-10T02:54:26.419Z,7.30
2023-01-10T02:57:20.836Z,7.68
2023-01-10T03:03:19.774Z,7.88
2023-01-10T03:06:06.316Z,8.43
2023-01-10T03:08:44.654Z,4.90
2023-01-10T03:11:38.035Z,6.72
2023-01-10T03:14:17.639Z,3.53
2023-01-10T03:16:55.201Z,6.47
2023-01-10T03:19:33.773Z,3.75
2023-01-10T03:22:10.804Z,6.68
2023-01-10T03:24:47.624Z,4.75
2023-01-10T03:27:26.137Z,4.35
2023-01-10T03:30:07.612Z,9.55
2023-01-10T03:32:41.552Z,5.90
2023-01-10T03:35:16.168Z,7.55
2023-01-10T03:37:58.615Z,6.18
2023-01-10T03:40:38.076Z,5.57
2023-01-10T03:43:34.873Z,4.57
2023-01-10T03:46:13.127Z,8.00
2023-01-10T03:48:48.111Z,5.68
2023-01-10T03:51:21.954Z,4.07
2023-01-10T03:59:02.873Z,8.32
2023-01-10T04:01:36.580Z,7.88
2023-01-10T04:04:09.983Z,5.75
2023-01-10T04:06:43.333Z,8.68
2023-01-10T04:09:18.125Z,9.95
2023-01-10T04:11:51.408Z,7.90
2023-01-10T04:14:24.689Z,5.95
2023-01-10T04:16:58.143Z,4.63
2023-01-10T04:19:31.601Z,5.95
2023-01-10T04:22:05.750Z,7.25
2023-01-10T04:24:40.528Z,7.20
2023-01-10T04:27:13.827Z,6.25
2023-01-10T04:29:47.232Z,5.65
2023-01-10T04:32:20.562Z,11.57
2023-01-10T04:34:54.174Z,4.85
2023-01-10T04:37:27.765Z,8.85
2023-01-10T04:40:02.481Z,5.60
2023-01-10T04:42:35.812Z,4.40
2023-01-10T04:45:11.800Z,5.60
2023-01-10T04:47:45.091Z,8.15
2023-01-10T04:50:18.554Z,6.43
2023-01-10T04:52:51.867Z,7.45
2023-01-10T04:55:26.580Z,10.05
2023-01-10T04:58:00.573Z,5.38
2023-01-10T05:00:33.850Z,7.75
2023-01-10T05:03:07.302Z,6.68
2023-01-10T05:05:40.682Z,5.93
2023-01-10T05:08:13.958Z,7.50
2023-01-10T05:10:48.673Z,4.95
2023-01-10T05:13:22.033Z,5.07
2023-01-10T05:15:56.194Z,8.93
2023-01-10T05:18:30.643Z,5.28
2023-01-10T05:21:05.979Z,8.30
2023-01-10T05:23:40.486Z,9.98
2023-01-10T05:26:17.263Z,4.63
2023-01-10T05:28:50.803Z,8.27
2023-01-10T05:31:24.156Z,6.53
2023-01-10T05:33:57.502Z,6.18
2023-01-10T05:36:30.797Z,10.23
2023-01-10T05:39:04.647Z,4.82
2023-01-10T05:46:48.112Z,6.03
2023-01-10T05:49:21.406Z,7.47
2023-01-10T05:51:54.981Z,9.90
2023-01-10T05:54:29.737Z,5.88
2023-01-10T05:57:04.456Z,6.05
2023-01-10T05:59:37.822Z,9.23
2023-01-10T06:02:11.219Z,9.18
2023-01-10T06:04:44.672Z,9.57
2023-01-10T06:07:17.921Z,6.85
2023-01-10T06:09:51.915Z,10.35
2023-01-10T06:12:26.680Z,10.10
2023-01-10T06:15:00.046Z,6.18
2023-01-10T06:17:33.349Z,5.22
2023-01-10T06:20:07.698Z,10.52
2023-01-10T06:22:42.703Z,9.13
2023-01-10T06:25:16.445Z,9.27
2023-01-10T06:27:51.136Z,9.95
2023-01-10T06:30:24.600Z,13.15
2023-01-10T06:33:03.127Z,8.68
2023-01-10T06:35:37.229Z,6.38
2023-01-10T06:38:10.526Z,6.93
2023-01-10T06:40:43.877Z,6.10
2023-01-10T06:43:18.689Z,9.85
2023-01-10T06:45:52.018Z,8.38
2023-01-10T06:48:25.329Z,13.43
2023-01-10T06:50:58.645Z,11.32
2023-01-10T06:53:32.110Z,10.73
2023-01-10T06:56:06.475Z,7.00
2023-01-10T06:58:41.469Z,9.35
2023-01-10T07:01:16.615Z,9.15
2023-01-10T07:03:50.265Z,12.73
2023-01-10T07:06:23.631Z,15.55
2023-01-10T07:08:57.129Z,9.35
2023-01-10T07:11:30.476Z,11.70
2023-01-10T07:14:05.426Z,9.52
2023-01-10T07:16:38.754Z,9.15
2023-01-10T07:19:13.486Z,13.45
2023-01-10T07:21:46.796Z,8.75
2023-01-10T07:24:20.283Z,13.05
2023-01-10T07:26:56.046Z,10.65
2023-01-10T07:29:30.757Z,10.43
2023-01-10T07:32:04.280Z,10.73
2023-01-10T07:34:37.639Z,12.13
2023-01-10T07:37:10.943Z,10.40
2023-01-10T07:39:44.284Z,9.00
2023-01-10T07:42:17.584Z,7.03
2023-01-10T07:44:52.326Z,8.02
2023-01-10T07:47:25.623Z,10.18
2023-01-10T07:49:58.947Z,11.93
2023-01-10T07:52:33.631Z,9.90
2023-01-10T07:55:07.847Z,9.52
2023-01-10T07:57:41.189Z,7.25
2023-01-10T08:00:18.916Z,32.22
2023-01-10T08:02:54.869Z,35.15
2023-01-10T08:05:28.388Z,34.33
2023-01-10T08:08:05.699Z,38.83
2023-01-10T08:10:40.838Z,32.65
2023-01-10T08:13:18.852Z,33.53
2023-01-10T08:15:53.921Z,33.33
2023-01-10T08:18:28.552Z,33.63
2023-01-10T08:21:02.225Z,25.65
2023-01-10T08:23:35.572Z,25.30
2023-01-10T08:26:08.984Z,22.27
2023-01-10T08:28:42.314Z,26.00
2023-01-10T08:31:17.252Z,25.30
2023-01-10T08:33:50.711Z,19.65
2023-01-10T08:36:24.318Z,17.85
2023-01-10T08:38:57.661Z,19.73
2023-01-10T08:41:31.403Z,19.55
2023-01-10T08:46:39.469Z,19.52
2023-01-10T08:49:12.983Z,17.42
2023-01-10T08:51:46.283Z,18.23
2023-01-10T08:54:19.573Z,19.75
2023-01-10T08:56:52.903Z,17.23
2023-01-10T08:59:26.371Z,25.40
2023-01-10T09:02:01.692Z,21.95
2023-01-10T09:04:35.080Z,21.95
2023-01-10T09:07:08.477Z,19.17
2023-01-10T09:09:41.815Z,16.95
2023-01-10T09:12:32.973Z,19.33
2023-01-10T09:15:07.799Z,29.85
2023-01-10T09:17:42.630Z,23.88
2023-01-10T09:20:16.122Z,22.02
2023-01-10T09:22:49.493Z,19.00
2023-01-10T09:25:23.224Z,20.58
2023-01-10T09:30:33.915Z,22.75
2023-01-10T09:33:08.767Z,31.35
2023-01-10T09:35:43.122Z,29.42
2023-01-10T09:38:18.937Z,28.85
2023-01-10T09:41:01.960Z,24.52
2023-01-10T09:43:47.643Z,30.75
2023-01-10T09:46:29.238Z,25.02
2023-01-10T09:49:13.859Z,22.80
2023-01-10T09:51:50.625Z,30.95
2023-01-10T09:54:29.288Z,26.20
2023-01-10T09:57:03.384Z,26.70
2023-01-10T09:59:39.469Z,24.45
2023-01-10T10:02:25.314Z,32.78
2023-01-10T10:05:10.445Z,25.23
2023-01-10T10:07:43.970Z,19.33
2023-01-10T10:10:22.750Z,23.27
2023-01-10T10:13:02.682Z,23.00
2023-01-10T10:15:42.877Z,35.83
2023-01-10T10:18:27.356Z,18.05
2023-01-10T10:21:07.900Z,22.13
2023-01-10T10:23:53.432Z,15.85
2023-01-10T10:26:33.777Z,14.57
2023-01-10T10:29:39.194Z,23.02
2023-01-10T10:32:36.160Z,15.07
2023-01-10T10:35:16.468Z,14.35
2023-01-10T10:37:53.386Z,14.82
2023-01-10T10:40:29.666Z,16.33
2023-01-10T10:43:15.986Z,14.93
2023-01-10T10:45:53.483Z,16.73
2023-01-10T10:48:30.021Z,12.82
2023-01-10T10:51:09.848Z,12.98
2023-01-10T10:53:44.505Z,20.88
2023-01-10T10:56:22.142Z,12.15
2023-01-10T10:58:59.962Z,14.50
2023-01-10T11:01:33.577Z,11.85
2023-01-10T11:04:12.719Z,12.25
2023-01-10T11:06:49.258Z,12.20
2023-01-10T11:09:29.235Z,12.02
2023-01-10T11:12:04.837Z,10.48
2023-01-10T11:14:47.191Z,13.05
2023-01-10T11:17:25.658Z,13.48
2023-01-10T11:20:01.475Z,16.70
2023-01-10T11:22:39.448Z,13.70
2023-01-10T11:25:18.397Z,12.07
2023-01-10T11:27:54.131Z,12.02
2023-01-10T11:30:29.762Z,12.88
2023-01-10T11:33:05.589Z,12.88
2023-01-10T11:35:41.927Z,8.80
2023-01-10T11:38:24.546Z,13.07
2023-01-10T11:41:01.532Z,12.88
2023-01-10T11:43:36.881Z,12.63
2023-01-10T11:46:15.822Z,13.23
2023-01-10T11:49:06.325Z,14.55
2023-01-10T11:51:47.734Z,13.50
2023-01-10T11:54:24.596Z,14.00
2023-01-10T11:57:02.184Z,25.48
2023-01-10T11:59:35.526Z,12.50
2023-01-10T12:02:18.853Z,13.85
2023-01-10T12:04:53.765Z,14.13
2023-01-10T12:07:27.185Z,12.32
2023-01-10T12:10:02.724Z,10.77
2023-01-10T12:12:38.859Z,10.00
2023-01-10T12:15:24.282Z,12.55
2023-01-10T12:18:01.583Z,9.98
2023-01-10T12:20:42.995Z,12.30
2023-01-10T12:23:20.476Z,14.57
2023-01-10T12:26:07.152Z,10.23
2023-01-10T12:28:51.099Z,9.05
2023-01-10T12:31:24.899Z,10.45
2023-01-10T12:36:40.515Z,9.27
2023-01-10T12:39:17.408Z,11.10
2023-01-10T12:42:20.748Z,10.77
2023-01-10T12:45:04.077Z,7.57
2023-01-10T12:47:49.700Z,8.68
2023-01-10T12:50:27.645Z,9.60
2023-01-10T12:53:06.203Z,8.85
2023-01-10T12:55:41.925Z,10.57
2023-01-10T12:58:21.957Z,7.78
2023-01-10T13:01:00.415Z,9.80
2023-01-10T13:03:35.892Z,8.85
2023-01-10T13:09:20.030Z,13.02
2023-01-10T13:12:00.833Z,7.38
2023-01-10T13:14:40.641Z,6.97
2023-01-10T13:17:27.474Z,11.00
2023-01-10T13:20:20.628Z,7.10
2023-01-10T13:22:55.960Z,11.52
2023-01-10T13:25:31.229Z,8.68
2023-01-10T13:28:06.944Z,11.00
2023-01-10T13:30:41.855Z,11.68
2023-01-10T13:33:23.419Z,13.15
2023-01-10T13:36:00.385Z,8.45
2023-01-10T13:38:39.944Z,13.07
2023-01-10T13:41:33.393Z,8.55
2023-01-10T13:44:11.342Z,6.07
2023-01-10T13:46:50.056Z,6.32
2023-01-10T13:49:44.572Z,11.45
2023-01-10T13:52:39.156Z,7.53
2023-01-10T13:55:25.443Z,8.27
2023-01-10T13:58:00.999Z,11.35
2023-01-10T14:01:06.383Z,7.47
2023-01-10T14:03:57.874Z,6.85
2023-01-10T14:06:44.488Z,9.32
2023-01-10T14:09:48.565Z,7.00
2023-01-10T14:12:28.195Z,6.80
2023-01-10T14:15:06.006Z,7.10
2023-01-10T14:17:40.375Z,7.65
2023-01-10T14:20:22.966Z,9.27
2023-01-10T14:23:08.764Z,8.50
2023-01-10T14:25:43.907Z,7.53
2023-01-10T14:28:24.582Z,10.02
2023-01-10T14:31:04.475Z,8.13
2023-01-10T14:33:42.830Z,9.45
2023-01-10T14:36:18.385Z,8.38
2023-01-10T14:38:58.253Z,7.05
2023-01-10T14:41:37.666Z,7.53
2023-01-10T14:44:17.105Z,11.05
2023-01-10T14:46:51.826Z,12.73
2023-01-10T14:49:28.406Z,14.13
2023-01-10T14:52:14.002Z,12.77
2023-01-10T14:54:49.570Z,17.08
2023-01-10T14:57:25.217Z,13.90
2023-01-10T15:00:10.599Z,9.93
2023-01-10T15:02:46.029Z,11.85
2023-01-10T15:05:21.493Z,10.35
2023-01-10T15:07:54.895Z,9.70
2023-01-10T15:10:32.738Z,12.38
2023-01-10T15:13:07.453Z,11.23
2023-01-10T15:15:43.593Z,12.00
2023-01-10T15:18:33.213Z,9.90
2023-01-10T15:21:07.370Z,12.25
2023-01-10T15:23:42.516Z,11.25
2023-01-10T15:26:19.086Z,22.30
2023-01-10T15:29:08.191Z,20.05
2023-01-10T15:31:42.509Z,22.77
2023-01-10T15:34:19.117Z,31.35
2023-01-10T15:36:55.688Z,15.32
2023-01-10T15:39:32.529Z,19.27
2023-01-10T15:42:09.816Z,19.58
2023-01-10T15:44:45.227Z,16.55
2023-01-10T15:47:40.495Z,17.92
2023-01-10T15:50:23.493Z,20.58
2023-01-10T15:52:58.842Z,24.90
2023-01-10T15:55:45.351Z,21.02
2023-01-10T15:58:28.323Z,15.80
2023-01-10T16:01:03.598Z,19.50
2023-01-10T16:03:39.631Z,22.25
2023-01-10T16:06:22.942Z,23.17
2023-01-10T16:08:58.318Z,19.97
2023-01-10T16:11:57.183Z,20.00
2023-01-10T16:14:33.513Z,22.60
2023-01-10T16:17:07.235Z,17.58
2023-01-10T16:19:40.660Z,20.30
2023-01-10T16:22:19.142Z,16.25
2023-01-10T16:24:52.899Z,24.60
2023-01-10T16:30:00.939Z,16.70
2023-01-10T16:32:34.315Z,25.33
2023-01-10T16:35:08.534Z,22.50
2023-01-10T16:37:41.840Z,22.38
2023-01-10T16:40:20.903Z,33.42
2023-01-10T16:43:11.966Z,27.40
2023-01-10T16:45:47.048Z,26.38
2023-01-10T16:48:21.610Z,24.15
2023-01-10T16:50:55.294Z,24.80
2023-01-10T16:53:28.633Z,25.45
2023-01-10T16:56:01.980Z,22.92
2023-01-10T16:58:35.361Z,25.38
2023-01-10T17:01:14.482Z,28.30
2023-01-10T17:03:48.513Z,26.45
2023-01-10T17:06:21.948Z,31.30
2023-01-10T17:08:55.289Z,25.70
2023-01-10T17:11:31.013Z,20.88
2023-01-10T17:14:05.435Z,26.83
2023-01-10T17:16:40.219Z,22.48
2023-01-10T17:19:13.599Z,22.98
2023-01-10T17:21:47.126Z,23.75
2023-01-10T17:24:20.514Z,18.98
2023-01-10T17:26:53.901Z,17.33
2023-01-10T17:29:27.210Z,21.65
2023-01-10T17:32:02.205Z,19.88
2023-01-10T17:34:37.676Z,18.42
2023-01-10T17:37:11.418Z,18.85
2023-01-10T17:42:18.999Z,18.00
2023-01-10T17:44:52.362Z,19.35
2023-01-10T17:47:27.404Z,17.23
2023-01-10T17:50:00.871Z,17.73
2023-01-10T17:52:34.262Z,16.85
2023-01-10T17:55:08.600Z,21.90
2023-01-10T17:57:41.972Z,22.27
2023-01-10T18:00:16.961Z,18.98
2023-01-10T18:02:51.796Z,18.83
2023-01-10T18:05:25.409Z,21.95
2023-01-10T18:08:01.255Z,18.55
2023-01-10T18:10:35.604Z,15.68
2023-01-10T18:13:12.057Z,19.10
2023-01-10T18:15:47.906Z,17.50
2023-01-10T18:18:24.918Z,20.63
2023-01-10T18:21:02.425Z,18.88
2023-01-10T18:23:36.049Z,20.98
2023-01-10T18:26:11.126Z,21.73
2023-01-10T18:28:45.607Z,26.40
2023-01-10T18:31:19.876Z,21.15
2023-01-10T18:33:56.376Z,25.85
2023-01-10T18:36:29.775Z,20.95
2023-01-10T18:39:03.777Z,21.73
2023-01-10T18:41:37.267Z,19.73
2023-01-10T18:44:10.632Z,17.98
2023-01-10T18:46:43.995Z,22.67
2023-01-10T18:49:18.702Z,15.45
2023-01-10T18:51:52.464Z,14.68
2023-01-10T18:57:01.375Z,21.90
2023-01-10T18:59:35.225Z,14.60
2023-01-10T19:02:11.564Z,17.38
2023-01-10T19:04:46.383Z,16.73
2023-01-10T19:07:19.810Z,14.23
2023-01-10T19:09:53.484Z,12.77
2023-01-10T19:15:01.504Z,14.68
2023-01-10T19:17:34.983Z,18.65
2023-01-10T19:20:11.501Z,20.33
2023-01-10T19:22:47.448Z,14.02
2023-01-10T19:25:21.233Z,12.82
2023-01-10T19:30:28.900Z,16.42
2023-01-10T19:33:02.344Z,14.25
2023-01-10T19:35:41.722Z,18.98
2023-01-10T19:38:15.184Z,16.10
2023-01-10T19:40:53.028Z,17.05
2023-01-10T19:43:26.554Z,18.08
2023-01-10T19:45:59.967Z,22.23
2023-01-10T19:48:35.838Z,27.50
2023-01-10T19:51:12.599Z,26.95
2023-01-10T19:53:46.693Z,18.38
2023-01-10T19:56:22.833Z,20.35
2023-01-10T19:58:56.486Z,19.52
2023-01-10T20:01:32.519Z,22.50
2023-01-10T20:04:07.158Z,26.80
2023-01-10T20:06:42.975Z,22.77
2023-01-10T20:09:16.788Z,23.67
2023-01-10T20:14:24.983Z,34.03
2023-01-10T20:16:58.409Z,23.65
2023-01-10T20:19:31.789Z,19.33
2023-01-10T20:22:06.758Z,19.45
2023-01-10T20:24:40.227Z,20.95
2023-01-10T20:27:13.548Z,17.45
2023-01-10T20:29:46.978Z,22.67
2023-01-10T20:32:20.607Z,23.20
2023-01-10T20:34:54.044Z,22.80
2023-01-10T20:37:28.816Z,20.77
2023-01-10T20:40:02.203Z,23.05
2023-01-10T20:42:35.614Z,30.20
2023-01-10T20:45:09.950Z,22.77
2023-01-10T20:47:43.306Z,20.75
2023-01-10T20:50:17.270Z,28.23
2023-01-10T20:52:52.073Z,26.33
2023-01-10T20:55:25.395Z,24.08
2023-01-10T20:57:58.740Z,29.02
2023-01-10T21:00:32.255Z,23.50
2023-01-10T21:03:06.341Z,20.40
2023-01-10T21:05:39.715Z,19.92
2023-01-10T21:08:14.524Z,26.25
2023-01-10T21:10:48.733Z,19.17
2023-01-10T21:13:22.299Z,18.63
2023-01-10T21:15:57.834Z,16.90
2023-01-10T21:18:33.572Z,19.98
2023-01-10T21:21:07.259Z,30.70
2023-01-10T21:23:42.705Z,19.15
2023-01-10T21:26:16.869Z,18.55
2023-01-10T21:28:50.233Z,16.60
2023-01-10T21:31:23.671Z,15.52
2023-01-10T21:33:57.028Z,18.40
2023-01-10T21:36:30.360Z,12.80
2023-01-10T21:39:05.215Z,22.10
2023-01-10T21:41:55.764Z,13.60
2023-01-10T21:44:29.124Z,14.55
2023-01-10T21:47:02.545Z,15.90
2023-01-10T21:49:35.955Z,17.00
2023-01-10T21:52:09.335Z,17.83
2023-01-10T21:54:44.044Z,14.10
2023-01-10T21:57:21.833Z,16.58
2023-01-10T21:59:55.409Z,17.10
2023-01-10T22:02:30.758Z,17.42
2023-01-10T22:05:04.392Z,11.95
2023-01-10T22:07:38.262Z,20.35
2023-01-10T22:10:13.663Z,16.75
2023-01-10T22:12:47.118Z,12.82
2023-01-10T22:15:20.781Z,11.70
2023-01-10T22:17:54.137Z,12.13
2023-01-10T22:20:27.559Z,11.70
2023-01-10T22:23:00.849Z,16.60
2023-01-10T22:25:35.638Z,14.32
2023-01-10T22:28:08.992Z,12.00
2023-01-10T22:30:42.327Z,14.27
2023-01-10T22:33:15.662Z,12.40
2023-01-10T22:35:49.025Z,11.35
2023-01-10T22:38:22.457Z,13.90
2023-01-10T22:40:57.229Z,10.82
2023-01-10T22:43:30.548Z,11.85
2023-01-10T22:46:04.218Z,13.23
2023-01-10T22:51:11.004Z,13.55
2023-01-10T22:53:44.903Z,17.73
2023-01-10T22:56:19.619Z,11.18
2023-01-10T22:58:53.113Z,11.43
2023-01-10T23:01:26.754Z,13.88
2023-01-10T23:04:00.142Z,12.98
2023-01-10T23:06:33.544Z,11.73
2023-01-10T23:09:06.894Z,11.82
2023-01-10T23:11:41.597Z,15.30
2023-01-10T23:14:14.976Z,12.45
2023-01-10T23:16:48.564Z,9.95
2023-01-10T23:19:21.919Z,13.13
2023-01-10T23:21:55.287Z,10.20
2023-01-10T23:24:28.617Z,12.45
2023-01-10T23:27:03.356Z,13.70
2023-01-10T23:29:36.770Z,10.10
2023-01-10T23:32:10.305Z,19.65
2023-01-10T23:34:43.806Z,12.95
2023-01-10T23:37:17.307Z,13.52
2023-01-10T23:39:50.676Z,11.68
2023-01-10T23:42:25.511Z,13.23
2023-01-10T23:44:58.885Z,11.98
2023-01-10T23:47:32.278Z,16.00
2023-01-10T23:50:06.858Z,11.65
2023-01-10T23:52:40.228Z,14.63
2023-01-10T23:55:13.585Z,11.65
2023-01-10T23:57:48.409Z,13.77
